createdAt,value
2023-04-30T00:00:36.643Z,99752.16
2023-04-30T00:03:05.086Z,99751.34
2023-04-30T00:05:35.992Z,99757.56
2023-04-30T00:08:05.452Z,99752.38
2023-04-30T00:10:33.414Z,99747.78
2023-04-30T00:13:01.423Z,99744.53
2023-04-30T00:15:29.362Z,99756.13
2023-04-30T00:17:57.350Z,99750.75
2023-04-30T00:20:25.325Z,99751.56
2023-04-30T00:22:53.367Z,99756.72
2023-04-30T00:25:24.616Z,99762.94
2023-04-30T00:27:52.578Z,99759.19
2023-04-30T00:30:20.845Z,99764.59
2023-04-30T00:32:48.968Z,99755.66
2023-04-30T00:35:17.193Z,99752.16
2023-04-30T00:37:45.395Z,99749.44
2023-04-30T00:40:14.126Z,99745.09
2023-04-30T00:42:43.605Z,99743.47
2023-04-30T00:45:12.151Z,99741.81
2023-04-30T00:47:40.311Z,99748.25
2023-04-30T00:50:09.878Z,99739.34
2023-04-30T00:52:38.001Z,99742.25
2023-04-30T00:55:08.932Z,99744.38
2023-04-30T00:57:37.466Z,99747.91
2023-04-30T01:00:11.566Z,99740.03
2023-04-30T01:02:39.798Z,99742.72
2023-04-30T01:05:08.884Z,99747.50
2023-04-30T01:07:38.781Z,99746.69
2023-04-30T01:10:08.215Z,99747.50
2023-04-30T01:12:38.844Z,99746.69
2023-04-30T01:15:10.771Z,99751.28
2023-04-30T01:17:40.414Z,99740.47
2023-04-30T01:20:09.412Z,99747.75
2023-04-30T01:22:39.029Z,99746.94
2023-04-30T01:25:31.241Z,99746.94
2023-04-30T01:28:08.125Z,99748.56
2023-04-30T01:30:36.615Z,99752.09
2023-04-30T01:33:04.761Z,99755.59
2023-04-30T01:35:50.778Z,99755.59
2023-04-30T01:38:24.732Z,99744.00
2023-04-30T01:40:54.659Z,99744.81
2023-04-30T01:43:28.859Z,99744.81
2023-04-30T01:46:01.424Z,99742.13
2023-04-30T01:48:32.579Z,99750.22
2023-04-30T01:51:05.205Z,99747.50
2023-04-30T01:53:34.576Z,99747.50
2023-04-30T01:56:04.228Z,99748.56
2023-04-30T01:58:33.862Z,99750.69
2023-04-30T02:01:01.900Z,99753.63
2023-04-30T02:03:29.998Z,99750.31
2023-04-30T02:05:59.256Z,99751.13
2023-04-30T02:08:27.446Z,99751.13
2023-04-30T02:10:55.874Z,99752.41
2023-04-30T02:13:23.806Z,99752.41
2023-04-30T02:15:53.265Z,99750.78
2023-04-30T02:18:21.408Z,99740.81
2023-04-30T02:20:49.324Z,99744.56
2023-04-30T02:23:17.498Z,99740.22
2023-04-30T02:25:45.470Z,99742.91
2023-04-30T02:28:13.387Z,99751.00
2023-04-30T02:30:41.512Z,99741.25
2023-04-30T02:33:12.513Z,99749.13
2023-04-30T02:35:42.262Z,99749.97
2023-04-30T02:38:10.180Z,99748.09
2023-04-30T02:40:38.249Z,99746.19
2023-04-30T02:43:06.531Z,99750.78
2023-04-30T02:45:34.627Z,99751.59
2023-04-30T02:48:02.669Z,99751.59
2023-04-30T02:50:32.176Z,99753.47
2023-04-30T02:53:00.293Z,99751.59
2023-04-30T02:55:28.439Z,99751.59
2023-04-30T02:57:56.476Z,99763.47
2023-04-30T03:00:24.569Z,99754.28
2023-04-30T03:02:52.900Z,99756.19
2023-04-30T03:05:21.016Z,99754.50
2023-04-30T03:07:50.404Z,99755.34
2023-04-30T03:10:19.256Z,99753.69
2023-04-30T03:12:47.208Z,99754.50
2023-04-30T03:15:15.569Z,99754.50
2023-04-30T03:17:45.929Z,99755.56
2023-04-30T03:20:14.747Z,99757.22
2023-04-30T03:22:42.953Z,99755.34
2023-04-30T03:25:12.755Z,99761.78
2023-04-30T03:27:40.836Z,99766.16
2023-04-30T03:30:09.663Z,99762.38
2023-04-30T03:32:38.921Z,99760.75
2023-04-30T03:35:08.149Z,99767.78
2023-04-30T03:37:36.176Z,99767.78
2023-04-30T03:40:05.027Z,99769.41
2023-04-30T03:42:34.470Z,99775.66
2023-04-30T03:45:02.583Z,99775.41
2023-04-30T03:47:30.715Z,99776.47
2023-04-30T03:49:58.777Z,99786.22
2023-04-30T03:52:27.343Z,99783.50
2023-04-30T03:54:55.387Z,99792.44
2023-04-30T03:57:23.460Z,99794.09
2023-04-30T03:59:53.285Z,99802.41
2023-04-30T04:02:21.677Z,99802.19
2023-04-30T04:04:49.969Z,99806.53
2023-04-30T04:07:17.893Z,99808.41
2023-04-30T04:09:45.913Z,99814.63
2023-04-30T04:12:13.937Z,99815.44
2023-04-30T04:14:41.936Z,99819.19
2023-04-30T04:17:11.320Z,99823.53
2023-04-30T04:19:39.396Z,99827.91
2023-04-30T04:22:07.498Z,99829.53
2023-04-30T04:24:35.564Z,99830.59
2023-04-30T04:27:04.048Z,99831.16
2023-04-30T04:29:32.339Z,99833.88
2023-04-30T04:32:02.978Z,99842.81
2023-04-30T04:34:32.356Z,99854.41
2023-04-30T04:37:00.349Z,99856.06
2023-04-30T04:39:28.474Z,99852.31
2023-04-30T04:41:59.323Z,99857.28
2023-04-30T04:44:27.271Z,99860.78
2023-04-30T04:46:56.966Z,99861.16
2023-04-30T04:49:25.170Z,99863.84
2023-04-30T04:51:54.583Z,99863.84
2023-04-30T04:54:41.188Z,99872.78
2023-04-30T04:57:09.228Z,99881.91
2023-04-30T04:59:37.297Z,99879.22
2023-04-30T05:02:07.372Z,99885.44
2023-04-30T05:04:35.414Z,99888.13
2023-04-30T05:07:04.903Z,99883.59
2023-04-30T05:09:32.959Z,99883.34
2023-04-30T05:12:01.019Z,99886.03
2023-04-30T05:14:29.170Z,99884.41
2023-04-30T05:16:57.087Z,99881.72
2023-04-30T05:19:25.090Z,99889.81
2023-04-30T05:21:53.188Z,99884.63
2023-04-30T05:24:42.252Z,99891.06
2023-04-30T05:27:10.272Z,99892.97
2023-04-30T05:29:38.354Z,99891.53
2023-04-30T05:32:08.150Z,99891.53
2023-04-30T05:34:36.286Z,99896.31
2023-04-30T05:37:04.451Z,99892.56
2023-04-30T05:39:34.361Z,99899.63
2023-04-30T05:42:03.789Z,99895.88
2023-04-30T05:44:31.908Z,99892.56
2023-04-30T05:46:59.818Z,99902.53
2023-04-30T05:49:28.447Z,99897.97
2023-04-30T05:51:56.600Z,99904.19
2023-04-30T05:54:43.010Z,99905.03
2023-04-30T05:57:12.296Z,99905.84
2023-04-30T05:59:40.350Z,99905.84
2023-04-30T06:02:08.403Z,99907.94
2023-04-30T06:04:36.733Z,99911.47
2023-04-30T06:07:04.655Z,99913.34
2023-04-30T06:09:32.991Z,99910.84
2023-04-30T06:12:01.018Z,99920.00
2023-04-30T06:14:30.421Z,99912.72
2023-04-30T06:16:58.583Z,99914.63
2023-04-30T06:19:26.683Z,99919.19
2023-04-30T06:21:54.745Z,99919.19
2023-04-30T06:24:22.851Z,99917.53
2023-04-30T06:26:50.860Z,99921.28
2023-04-30T06:29:18.888Z,99921.28
2023-04-30T06:31:48.340Z,99919.66
2023-04-30T06:34:16.506Z,99926.69
2023-04-30T06:36:44.477Z,99932.06
2023-04-30T06:39:13.554Z,99934.56
2023-04-30T06:41:41.998Z,99929.16
2023-04-30T06:44:10.076Z,99935.38
2023-04-30T06:46:38.123Z,99935.38
2023-04-30T06:49:07.704Z,99931.63
2023-04-30T06:51:35.819Z,99940.53
2023-04-30T06:54:03.792Z,99930.81
2023-04-30T06:56:31.917Z,99929.75
2023-04-30T06:58:59.929Z,99927.91
2023-04-30T07:01:28.032Z,99927.91
2023-04-30T07:03:56.260Z,99926.22
2023-04-30T07:06:25.908Z,99922.50
2023-04-30T07:08:53.960Z,99925.19
2023-04-30T07:11:22.074Z,99923.53
2023-04-30T07:13:50.014Z,99928.72
2023-04-30T07:16:18.140Z,99928.09
2023-04-30T07:18:48.842Z,99930.59
2023-04-30T07:21:16.877Z,99933.28
2023-04-30T07:24:40.797Z,99934.94
2023-04-30T07:27:10.196Z,99941.97
2023-04-30T07:29:38.412Z,99930.94
2023-04-30T07:32:07.092Z,99938.22
2023-04-30T07:34:35.133Z,99939.88
2023-04-30T07:37:03.322Z,99938.22
2023-04-30T07:39:31.295Z,99944.25
2023-04-30T07:41:59.372Z,99941.09
2023-04-30T07:44:28.620Z,99943.78
2023-04-30T07:46:56.573Z,99948.13
2023-04-30T07:49:24.592Z,99947.91
2023-04-30T07:51:52.479Z,99950.59
2023-04-30T07:55:00.811Z,99947.69
2023-04-30T07:57:28.912Z,99953.09
2023-04-30T07:59:58.415Z,99958.28
2023-04-30T08:02:26.946Z,99950.19
2023-04-30T08:04:55.046Z,99952.06
2023-04-30T08:07:23.144Z,99958.03
2023-04-30T08:09:51.037Z,99954.31
2023-04-30T08:12:19.093Z,99946.41
2023-04-30T08:14:47.107Z,99954.06
2023-04-30T08:17:16.541Z,99954.66
2023-04-30T08:19:44.713Z,99954.66
2023-04-30T08:22:12.704Z,99963.38
2023-04-30T08:25:31.739Z,99953.41
2023-04-30T08:28:00.078Z,99955.06
2023-04-30T08:30:28.144Z,99956.69
2023-04-30T08:32:57.857Z,99954.00
2023-04-30T08:35:26.288Z,99960.22
2023-04-30T08:37:54.455Z,99960.00
2023-04-30T08:40:29.052Z,99961.66
2023-04-30T08:43:07.384Z,99964.97
2023-04-30T08:45:35.798Z,99973.66
2023-04-30T08:48:05.939Z,99966.13
2023-04-30T08:50:35.181Z,99962.41
2023-04-30T08:53:03.191Z,99957.00
2023-04-30T08:55:31.481Z,99956.75
2023-04-30T08:57:59.471Z,99954.06
2023-04-30T09:00:27.929Z,99955.72
2023-04-30T09:02:56.035Z,99960.06
2023-04-30T09:05:25.549Z,99959.03
2023-04-30T09:08:03.639Z,99960.66
2023-04-30T09:10:33.747Z,99956.09
2023-04-30T09:13:02.569Z,99954.00
2023-04-30T09:15:30.740Z,99955.63
2023-04-30T09:18:19.803Z,99952.47
2023-04-30T09:20:59.012Z,99948.94
2023-04-30T09:23:27.001Z,99944.38
2023-04-30T09:26:21.502Z,99951.44
2023-04-30T09:28:56.525Z,99940.63
2023-04-30T09:31:24.741Z,99936.06
2023-04-30T09:33:52.822Z,99934.16
2023-04-30T09:36:22.225Z,99931.25
2023-04-30T09:39:17.660Z,99931.25
2023-04-30T09:41:46.291Z,99936.41
2023-04-30T09:44:28.316Z,99935.38
2023-04-30T09:46:57.296Z,99931.84
2023-04-30T09:49:25.395Z,99931.59
2023-04-30T09:51:58.112Z,99925.19
2023-04-30T09:54:27.409Z,99924.72
2023-04-30T09:56:55.696Z,99926.34
2023-04-30T09:59:24.082Z,99917.44
2023-04-30T10:01:52.286Z,99916.34
2023-04-30T10:04:20.919Z,99910.13
2023-04-30T10:06:49.040Z,99916.34
2023-04-30T10:09:18.451Z,99911.78
2023-04-30T10:11:46.985Z,99915.31
2023-04-30T10:14:15.150Z,99904.53
2023-04-30T10:16:45.442Z,99904.28
2023-04-30T10:19:15.628Z,99897.22
2023-04-30T10:21:44.099Z,99898.88
2023-04-30T10:24:14.511Z,99902.19
2023-04-30T10:26:43.855Z,99900.88
2023-04-30T10:29:11.761Z,99889.03
2023-04-30T10:31:39.777Z,99897.13
2023-04-30T10:34:12.715Z,99885.50
2023-04-30T10:36:42.224Z,99890.31
2023-04-30T10:39:28.903Z,99884.69
2023-04-30T10:42:04.722Z,99889.28
2023-04-30T10:44:33.779Z,99893.59
2023-04-30T10:47:02.698Z,99886.91
2023-04-30T10:49:30.689Z,99888.34
2023-04-30T10:52:01.035Z,99879.19
2023-04-30T10:55:25.711Z,99875.44
2023-04-30T10:57:56.038Z,99861.91
2023-04-30T11:00:27.142Z,99867.06
2023-04-30T11:02:58.013Z,99857.94
2023-04-30T11:05:35.893Z,99852.28
2023-04-30T11:08:04.124Z,99858.75
2023-04-30T11:11:10.723Z,99853.34
2023-04-30T11:13:45.455Z,99858.97
2023-04-30T11:16:13.604Z,99860.03
2023-04-30T11:18:43.637Z,99857.59
2023-04-30T11:21:11.861Z,99866.72
2023-04-30T11:23:42.958Z,99869.41
2023-04-30T11:26:10.980Z,99881.31
2023-04-30T11:28:38.980Z,99880.47
2023-04-30T11:31:08.503Z,99874.22
2023-04-30T11:33:36.731Z,99880.47
2023-04-30T11:36:05.099Z,99876.09
2023-04-30T11:38:35.810Z,99879.63
2023-04-30T11:41:03.836Z,99887.97
2023-04-30T11:43:32.455Z,99899.59
2023-04-30T11:46:09.422Z,99899.59
2023-04-30T11:48:38.048Z,99891.72
2023-04-30T11:51:07.494Z,99890.91
2023-04-30T11:53:35.537Z,99889.28
2023-04-30T11:56:07.303Z,99903.59
2023-04-30T11:58:38.099Z,99918.97
2023-04-30T12:01:06.612Z,99928.72
2023-04-30T12:03:42.024Z,99893.84
2023-04-30T12:06:11.888Z,99874.69
2023-04-30T12:08:40.091Z,99872.81
2023-04-30T12:11:21.006Z,99880.09
2023-04-30T12:13:52.717Z,99880.09
2023-04-30T12:16:21.126Z,99876.34
2023-04-30T12:18:52.874Z,99882.81
2023-04-30T12:21:22.806Z,99873.88
2023-04-30T12:23:50.950Z,99873.88
2023-04-30T12:26:19.118Z,99875.75
2023-04-30T12:28:49.041Z,99867.88
2023-04-30T12:31:18.574Z,99867.06
2023-04-30T12:33:56.522Z,99871.41
2023-04-30T12:36:31.711Z,99858.94
2023-04-30T12:39:08.753Z,99860.59
2023-04-30T12:41:41.987Z,99857.06
2023-04-30T12:44:19.656Z,99849.34
2023-04-30T12:46:48.188Z,99845.78
2023-04-30T12:49:26.048Z,99844.50
2023-04-30T12:51:56.955Z,99827.25
2023-04-30T12:54:28.901Z,99828.91
2023-04-30T12:57:01.392Z,99820.78
2023-04-30T12:59:29.546Z,99812.22
2023-04-30T13:01:58.316Z,99815.72
2023-04-30T13:04:27.918Z,99815.53
2023-04-30T13:06:55.850Z,99817.16
2023-04-30T13:09:51.755Z,99811.31
2023-04-30T13:12:20.473Z,99820.22
2023-04-30T13:14:48.466Z,99811.88
2023-04-30T13:17:16.377Z,99816.00
2023-04-30T13:19:45.714Z,99810.59
2023-04-30T13:22:13.888Z,99805.00
2023-04-30T13:24:41.955Z,99801.66
2023-04-30T13:27:09.974Z,99791.66
2023-04-30T13:29:37.913Z,99807.06
2023-04-30T13:32:06.145Z,99800.41
2023-04-30T13:34:34.070Z,99796.63
2023-04-30T13:37:03.595Z,99788.31
2023-04-30T13:40:16.703Z,99788.31
2023-04-30T13:42:44.714Z,99797.81
2023-04-30T13:45:13.260Z,99793.25
2023-04-30T13:47:41.344Z,99788.44
2023-04-30T13:50:09.758Z,99794.44
2023-04-30T13:52:39.129Z,99778.22
2023-04-30T13:55:25.836Z,99788.53
2023-04-30T13:57:53.859Z,99786.91
2023-04-30T14:00:22.228Z,99783.13
2023-04-30T14:02:50.408Z,99787.25
2023-04-30T14:05:18.590Z,99786.19
2023-04-30T14:07:47.937Z,99784.28
2023-04-30T14:10:35.722Z,99771.38
2023-04-30T14:13:03.719Z,99769.28
2023-04-30T14:15:32.637Z,99772.56
2023-04-30T14:18:01.599Z,99775.88
2023-04-30T14:20:29.616Z,99785.38
2023-04-30T14:23:00.360Z,99773.28
2023-04-30T14:25:29.578Z,99778.69
2023-04-30T14:27:57.533Z,99782.44
2023-04-30T14:30:25.619Z,99784.31
2023-04-30T14:32:53.746Z,99779.97
2023-04-30T14:35:21.677Z,99783.72
2023-04-30T14:37:49.761Z,99778.09
2023-04-30T14:40:37.468Z,99775.38
2023-04-30T14:43:05.441Z,99774.09
2023-04-30T14:45:34.434Z,99777.72
2023-04-30T14:48:05.232Z,99785.97
2023-04-30T14:50:33.706Z,99781.03
2023-04-30T14:53:01.753Z,99786.88
2023-04-30T14:55:29.789Z,99776.31
2023-04-30T14:57:59.693Z,99772.91
2023-04-30T15:00:28.077Z,99775.13
2023-04-30T15:02:56.092Z,99775.84
2023-04-30T15:05:24.196Z,99776.31
2023-04-30T15:07:52.208Z,99785.97
2023-04-30T15:10:20.467Z,99788.53
2023-04-30T15:12:48.419Z,99783.63
2023-04-30T15:15:18.930Z,99805.72
2023-04-30T15:17:47.012Z,99810.28
2023-04-30T15:20:15.134Z,99813.25
2023-04-30T15:22:43.246Z,99807.84
2023-04-30T15:25:51.952Z,99818.66
2023-04-30T15:28:20.920Z,99811.00
2023-04-30T15:30:50.310Z,99818.06
2023-04-30T15:33:19.395Z,99819.94
2023-04-30T15:35:47.509Z,99816.41
2023-04-30T15:38:15.904Z,99826.38
2023-04-30T15:40:43.823Z,99828.28
2023-04-30T15:43:11.752Z,99824.97
2023-04-30T15:45:39.991Z,99823.34
2023-04-30T15:48:09.559Z,99819.81
2023-04-30T15:50:37.611Z,99822.75
2023-04-30T15:53:05.679Z,99818.16
2023-04-30T15:55:52.243Z,99812.19
2023-04-30T15:58:20.382Z,99805.94
2023-04-30T16:00:48.424Z,99801.59
2023-04-30T16:03:17.909Z,99797.25
2023-04-30T16:05:46.017Z,99801.00
2023-04-30T16:08:15.055Z,99807.25
2023-04-30T16:10:43.493Z,99795.13
2023-04-30T16:13:11.484Z,99796.78
2023-04-30T16:15:39.513Z,99794.66
2023-04-30T16:18:07.958Z,99796.78
2023-04-30T16:20:37.660Z,99795.72
2023-04-30T16:23:06.002Z,99803.59
2023-04-30T16:25:52.034Z,99799.00
2023-04-30T16:28:19.951Z,99810.63
2023-04-30T16:30:47.919Z,99796.31
2023-04-30T16:33:16.397Z,99799.81
2023-04-30T16:35:45.998Z,99808.75
2023-04-30T16:38:13.986Z,99807.94
2023-04-30T16:44:33.261Z,99810.88
2023-04-30T16:47:01.338Z,99815.44
2023-04-30T16:49:29.396Z,99810.28
2023-04-30T16:51:58.711Z,99812.19
2023-04-30T16:54:26.754Z,99814.88
2023-04-30T16:56:54.699Z,99813.47
2023-04-30T16:59:24.643Z,99826.16
2023-04-30T17:01:56.460Z,99817.22
2023-04-30T17:04:24.509Z,99826.38
2023-04-30T17:06:52.553Z,99838.28
2023-04-30T17:09:21.955Z,99833.09
2023-04-30T17:11:49.885Z,99830.59
2023-04-30T17:14:17.781Z,99832.50
2023-04-30T17:16:46.455Z,99833.31
2023-04-30T17:19:14.374Z,99836.25
2023-04-30T17:21:42.265Z,99836.47
2023-04-30T17:24:12.835Z,99843.78
2023-04-30T17:26:42.261Z,99839.19
2023-04-30T17:29:10.271Z,99840.25
2023-04-30T17:31:38.327Z,99844.84
2023-04-30T17:34:06.306Z,99846.47
2023-04-30T17:36:34.909Z,99865.59
2023-04-30T17:39:05.831Z,99871.88
2023-04-30T17:45:26.830Z,99875.00
2023-04-30T17:47:54.954Z,99885.00
2023-04-30T17:50:23.001Z,99887.94
2023-04-30T17:52:51.436Z,99898.75
2023-04-30T17:55:19.368Z,99901.66
2023-04-30T17:57:47.508Z,99898.13
2023-04-30T18:00:16.981Z,99903.75
2023-04-30T18:02:46.413Z,99907.53
2023-04-30T18:05:14.986Z,99904.00
2023-04-30T18:07:43.049Z,99912.09
2023-04-30T18:10:11.253Z,99917.72
2023-04-30T18:12:39.539Z,99924.81
2023-04-30T18:15:08.512Z,99927.72
2023-04-30T18:17:37.501Z,99926.91
2023-04-30T18:20:08.411Z,99931.50
2023-04-30T18:22:42.352Z,99937.09
2023-04-30T18:27:56.749Z,99935.47
2023-04-30T18:30:24.859Z,99942.72
2023-04-30T18:32:52.792Z,99939.00
2023-04-30T18:35:22.259Z,99949.78
2023-04-30T18:37:50.458Z,99949.78
2023-04-30T18:40:31.809Z,99950.63
2023-04-30T18:42:59.890Z,99958.94
2023-04-30T18:45:28.077Z,99966.84
2023-04-30T18:47:56.404Z,99970.59
2023-04-30T18:50:26.264Z,99968.72
2023-04-30T18:52:54.475Z,99969.75
2023-04-30T18:55:23.043Z,99974.34
2023-04-30T18:57:51.592Z,99968.09
2023-04-30T19:00:19.491Z,99984.31
2023-04-30T19:02:47.623Z,99981.88
2023-04-30T19:05:15.772Z,99978.56
2023-04-30T19:07:45.209Z,99985.59
2023-04-30T19:10:13.252Z,99983.97
2023-04-30T19:12:43.961Z,99977.75
2023-04-30T19:15:14.867Z,99990.41
2023-04-30T19:17:43.144Z,99986.88
2023-04-30T19:20:12.475Z,99982.53
2023-04-30T19:22:44.533Z,99989.84
2023-04-30T19:25:12.618Z,99982.75
2023-04-30T19:27:40.481Z,99982.75
2023-04-30T19:30:09.395Z,99991.94
2023-04-30T19:32:38.085Z,99986.53
2023-04-30T19:35:06.849Z,99982.16
2023-04-30T19:37:34.784Z,99991.94
2023-04-30T19:40:05.340Z,99991.94
2023-04-30T19:42:33.505Z,99998.16
2023-04-30T19:45:01.940Z,99996.50
2023-04-30T19:47:29.891Z,100001.91
2023-04-30T19:49:58.203Z,100008.13
2023-04-30T19:52:26.439Z,100018.13
2023-04-30T19:54:54.368Z,100014.56
2023-04-30T19:57:23.754Z,100011.88
2023-04-30T19:59:51.820Z,100017.28
2023-04-30T20:02:19.814Z,100015.63
2023-04-30T20:04:47.823Z,100021.03
2023-04-30T20:07:15.822Z,100017.53
2023-04-30T20:09:43.892Z,100023.13
2023-04-30T20:15:54.510Z,100027.94
2023-04-30T20:18:22.497Z,100026.91
2023-04-30T20:20:50.562Z,100020.06
2023-04-30T20:23:20.374Z,100025.47
2023-04-30T20:25:51.582Z,100025.69
2023-04-30T20:28:19.664Z,100026.53
2023-04-30T20:30:48.158Z,100031.09
2023-04-30T20:33:18.896Z,100031.09
2023-04-30T20:35:47.552Z,100029.44
2023-04-30T20:38:18.887Z,100031.09
2023-04-30T20:40:47.875Z,100029.44
2023-04-30T20:43:15.935Z,100033.22
2023-04-30T20:45:45.367Z,100026.16
2023-04-30T20:48:13.498Z,100034.25
2023-04-30T20:50:42.943Z,100044.84
2023-04-30T20:53:11.709Z,100036.75
2023-04-30T20:55:39.682Z,100036.75
2023-04-30T20:58:08.908Z,100050.25
2023-04-30T21:00:36.964Z,100055.66
2023-04-30T21:03:05.049Z,100048.81
2023-04-30T21:05:33.114Z,100054.81
2023-04-30T21:08:02.838Z,100054.81
2023-04-30T21:10:36.224Z,100059.38
2023-04-30T21:13:05.488Z,100061.25
2023-04-30T21:15:35.354Z,100059.63
2023-04-30T21:18:03.582Z,100057.94
2023-04-30T21:20:32.171Z,100054.69
2023-04-30T21:23:00.393Z,100062.78
2023-04-30T21:25:29.744Z,100066.50
2023-04-30T21:27:57.688Z,100071.91
2023-04-30T21:30:26.597Z,100071.09
2023-04-30T21:32:58.280Z,100063.81
2023-04-30T21:35:27.863Z,100074.63
2023-04-30T21:37:55.999Z,100065.69
2023-04-30T21:40:24.026Z,100072.97
2023-04-30T21:42:53.464Z,100075.69
2023-04-30T21:45:21.672Z,100069.22
2023-04-30T21:47:49.712Z,100068.59
2023-04-30T21:50:17.848Z,100066.97
2023-04-30T21:52:45.775Z,100072.38
2023-04-30T21:55:13.791Z,100083.16
2023-04-30T21:57:41.730Z,100077.78
2023-04-30T22:00:14.402Z,100075.06
2023-04-30T22:02:42.705Z,100078.81
2023-04-30T22:05:11.511Z,100079.84
2023-04-30T22:07:39.462Z,100077.16
2023-04-30T22:10:08.171Z,100074.47
2023-04-30T22:12:36.159Z,100073.63
2023-04-30T22:15:04.699Z,100077.16
2023-04-30T22:17:34.460Z,100079.84
2023-04-30T22:20:02.368Z,100080.91
2023-04-30T22:22:30.404Z,100078.22
2023-04-30T22:24:58.461Z,100073.88
2023-04-30T22:27:26.942Z,100077.59
2023-04-30T22:29:55.064Z,100080.31
2023-04-30T22:32:23.206Z,100081.13
2023-04-30T22:34:52.484Z,100074.91
2023-04-30T22:37:20.397Z,100070.56
2023-04-30T22:39:48.528Z,100078.44
2023-04-30T22:42:16.933Z,100073.88
2023-04-30T22:44:46.009Z,100071.19
2023-04-30T22:47:14.081Z,100075.72
2023-04-30T22:49:42.442Z,100074.69
2023-04-30T22:52:11.746Z,100073.88
2023-04-30T22:54:39.590Z,100065.78
2023-04-30T23:01:28.390Z,100065.16
2023-04-30T23:03:56.426Z,100069.50
2023-04-30T23:06:24.603Z,100057.06
2023-04-30T23:08:53.990Z,100067.88
2023-04-30T23:11:28.300Z,100067.88
2023-04-30T23:13:56.387Z,100066.19
2023-04-30T23:16:24.895Z,100069.97
2023-04-30T23:18:52.949Z,100075.56
2023-04-30T23:21:21.987Z,100078.50
2023-04-30T23:23:49.993Z,100082.03
2023-04-30T23:26:28.649Z,100074.16
2023-04-30T23:28:56.670Z,100077.91
2023-04-30T23:31:24.639Z,100072.50
2023-04-30T23:33:55.036Z,100070.88
2023-04-30T23:36:23.110Z,100071.06
2023-04-30T23:38:51.322Z,100070.25
2023-04-30T23:41:30.054Z,100069.19
2023-04-30T23:43:57.990Z,100060.47
2023-04-30T23:46:26.105Z,100061.34
2023-04-30T23:48:54.079Z,100061.34
2023-04-30T23:51:22.613Z,100066.75
2023-04-30T23:53:50.624Z,100058.84
2023-04-30T23:56:56.842Z,100060.47
2023-04-30T23:59:26.990Z,100067.56
